sensor_id;sensor_type;location;lat;lon;timestamp;P1;durP1;ratioP1;P2;durP2;ratioP2
18887;SDS011;9576;47.792;9.628;2022-12-07T00:01:25;38.25;;;18.00;;
18887;SDS011;9576;47.792;9.628;2022-12-07T00:07:32;40.15;;;18.50;;
18887;SDS011;9576;47.792;9.628;2022-12-07T00:10:33;39.97;;;17.38;;
18887;SDS011;9576;47.792;9.628;2022-12-07T00:13:36;36.88;;;17.88;;
18887;SDS011;9576;47.792;9.628;2022-12-07T00:16:38;34.38;;;16.05;;
18887;SDS011;9576;47.792;9.628;2022-12-07T00:19:40;46.28;;;18.40;;
18887;SDS011;9576;47.792;9.628;2022-12-07T00:22:44;49.13;;;19.40;;
18887;SDS011;9576;47.792;9.628;2022-12-07T00:25:46;41.92;;;18.85;;
18887;SDS011;9576;47.792;9.628;2022-12-07T00:28:50;49.38;;;20.38;;
18887;SDS011;9576;47.792;9.628;2022-12-07T00:31:53;55.50;;;21.73;;
18887;SDS011;9576;47.792;9.628;2022-12-07T00:34:55;60.03;;;23.17;;
18887;SDS011;9576;47.792;9.628;2022-12-07T00:37:58;49.88;;;22.13;;
18887;SDS011;9576;47.792;9.628;2022-12-07T00:41:00;65.72;;;24.55;;
18887;SDS011;9576;47.792;9.628;2022-12-07T00:44:04;64.20;;;24.83;;
18887;SDS011;9576;47.792;9.628;2022-12-07T00:47:06;66.15;;;24.73;;
18887;SDS011;9576;47.792;9.628;2022-12-07T00:50:08;63.60;;;24.85;;
18887;SDS011;9576;47.792;9.628;2022-12-07T00:53:11;68.38;;;23.35;;
18887;SDS011;9576;47.792;9.628;2022-12-07T00:56:14;73.10;;;23.80;;
18887;SDS011;9576;47.792;9.628;2022-12-07T00:59:18;84.53;;;26.10;;
18887;SDS011;9576;47.792;9.628;2022-12-07T01:02:19;63.72;;;25.67;;
18887;SDS011;9576;47.792;9.628;2022-12-07T01:05:22;75.90;;;24.35;;
18887;SDS011;9576;47.792;9.628;2022-12-07T01:08:26;77.63;;;27.33;;
18887;SDS011;9576;47.792;9.628;2022-12-07T01:11:29;71.72;;;25.52;;
18887;SDS011;9576;47.792;9.628;2022-12-07T01:14:31;66.97;;;23.73;;
18887;SDS011;9576;47.792;9.628;2022-12-07T01:17:34;74.90;;;27.20;;
18887;SDS011;9576;47.792;9.628;2022-12-07T01:20:36;63.25;;;22.02;;
18887;SDS011;9576;47.792;9.628;2022-12-07T01:23:39;57.40;;;21.60;;
18887;SDS011;9576;47.792;9.628;2022-12-07T01:26:41;62.47;;;25.13;;
18887;SDS011;9576;47.792;9.628;2022-12-07T01:29:43;69.15;;;25.25;;
18887;SDS011;9576;47.792;9.628;2022-12-07T01:32:45;66.82;;;24.50;;
18887;SDS011;9576;47.792;9.628;2022-12-07T01:35:47;65.80;;;24.50;;
18887;SDS011;9576;47.792;9.628;2022-12-07T01:38:51;62.30;;;24.27;;
18887;SDS011;9576;47.792;9.628;2022-12-07T01:41:56;66.90;;;26.55;;
18887;SDS011;9576;47.792;9.628;2022-12-07T01:48:35;81.15;;;24.85;;
18887;SDS011;9576;47.792;9.628;2022-12-07T01:51:40;67.57;;;24.38;;
18887;SDS011;9576;47.792;9.628;2022-12-07T01:54:46;73.63;;;28.10;;
18887;SDS011;9576;47.792;9.628;2022-12-07T01:57:50;66.80;;;25.35;;
18887;SDS011;9576;47.792;9.628;2022-12-07T02:00:54;73.00;;;26.25;;
18887;SDS011;9576;47.792;9.628;2022-12-07T02:03:56;74.97;;;28.25;;
18887;SDS011;9576;47.792;9.628;2022-12-07T02:06:59;72.78;;;25.90;;
18887;SDS011;9576;47.792;9.628;2022-12-07T02:10:12;67.57;;;25.67;;
18887;SDS011;9576;47.792;9.628;2022-12-07T02:13:16;58.25;;;25.13;;
18887;SDS011;9576;47.792;9.628;2022-12-07T02:16:25;64.20;;;25.17;;
18887;SDS011;9576;47.792;9.628;2022-12-07T02:19:43;60.22;;;23.77;;
18887;SDS011;9576;47.792;9.628;2022-12-07T02:30:19;56.05;;;22.42;;
18887;SDS011;9576;47.792;9.628;2022-12-07T02:33:23;58.60;;;23.65;;
18887;SDS011;9576;47.792;9.628;2022-12-07T02:36:30;66.40;;;23.17;;
18887;SDS011;9576;47.792;9.628;2022-12-07T02:39:37;74.72;;;23.23;;
18887;SDS011;9576;47.792;9.628;2022-12-07T02:42:45;50.92;;;21.88;;
18887;SDS011;9576;47.792;9.628;2022-12-07T02:45:52;57.50;;;21.85;;
18887;SDS011;9576;47.792;9.628;2022-12-07T02:48:56;51.45;;;20.02;;
18887;SDS011;9576;47.792;9.628;2022-12-07T02:52:00;42.28;;;16.13;;
18887;SDS011;9576;47.792;9.628;2022-12-07T02:55:02;39.15;;;16.75;;
18887;SDS011;9576;47.792;9.628;2022-12-07T02:58:08;39.97;;;16.37;;
18887;SDS011;9576;47.792;9.628;2022-12-07T03:01:28;36.78;;;15.32;;
18887;SDS011;9576;47.792;9.628;2022-12-07T03:04:42;26.50;;;13.70;;
18887;SDS011;9576;47.792;9.628;2022-12-07T03:07:53;45.85;;;12.98;;
18887;SDS011;9576;47.792;9.628;2022-12-07T03:11:02;32.63;;;13.50;;
18887;SDS011;9576;47.792;9.628;2022-12-07T03:14:07;28.83;;;12.13;;
18887;SDS011;9576;47.792;9.628;2022-12-07T03:17:16;27.40;;;11.38;;
18887;SDS011;9576;47.792;9.628;2022-12-07T03:20:22;28.02;;;11.40;;
18887;SDS011;9576;47.792;9.628;2022-12-07T03:23:26;22.90;;;11.20;;
18887;SDS011;9576;47.792;9.628;2022-12-07T03:26:32;35.83;;;12.00;;
18887;SDS011;9576;47.792;9.628;2022-12-07T03:29:38;15.57;;;8.18;;
18887;SDS011;9576;47.792;9.628;2022-12-07T03:32:45;18.73;;;9.88;;
18887;SDS011;9576;47.792;9.628;2022-12-07T03:35:53;20.15;;;8.88;;
18887;SDS011;9576;47.792;9.628;2022-12-07T03:39:03;20.98;;;9.50;;
18887;SDS011;9576;47.792;9.628;2022-12-07T03:42:13;19.13;;;8.20;;
18887;SDS011;9576;47.792;9.628;2022-12-07T03:45:15;22.80;;;9.48;;
18887;SDS011;9576;47.792;9.628;2022-12-07T03:48:20;21.17;;;8.93;;
18887;SDS011;9576;47.792;9.628;2022-12-07T03:51:27;26.58;;;8.93;;
18887;SDS011;9576;47.792;9.628;2022-12-07T03:54:36;16.83;;;8.27;;
18887;SDS011;9576;47.792;9.628;2022-12-07T03:57:43;20.65;;;9.07;;
18887;SDS011;9576;47.792;9.628;2022-12-07T04:00:48;21.50;;;7.93;;
18887;SDS011;9576;47.792;9.628;2022-12-07T04:03:52;23.77;;;9.63;;
18887;SDS011;9576;47.792;9.628;2022-12-07T04:06:54;20.00;;;9.30;;
18887;SDS011;9576;47.792;9.628;2022-12-07T04:09:56;26.05;;;9.40;;
18887;SDS011;9576;47.792;9.628;2022-12-07T04:12:58;20.65;;;9.80;;
18887;SDS011;9576;47.792;9.628;2022-12-07T04:16:00;23.73;;;8.73;;
18887;SDS011;9576;47.792;9.628;2022-12-07T04:19:03;22.27;;;8.80;;
18887;SDS011;9576;47.792;9.628;2022-12-07T04:22:05;17.20;;;8.55;;
18887;SDS011;9576;47.792;9.628;2022-12-07T04:25:08;19.45;;;8.68;;
18887;SDS011;9576;47.792;9.628;2022-12-07T04:28:10;18.17;;;9.15;;
18887;SDS011;9576;47.792;9.628;2022-12-07T04:31:12;20.92;;;8.98;;
18887;SDS011;9576;47.792;9.628;2022-12-07T04:34:15;19.88;;;10.35;;
18887;SDS011;9576;47.792;9.628;2022-12-07T04:37:17;25.30;;;9.33;;
18887;SDS011;9576;47.792;9.628;2022-12-07T04:40:19;23.65;;;9.70;;
18887;SDS011;9576;47.792;9.628;2022-12-07T04:43:21;22.10;;;9.25;;
18887;SDS011;9576;47.792;9.628;2022-12-07T04:46:23;21.55;;;9.43;;
18887;SDS011;9576;47.792;9.628;2022-12-07T04:49:27;18.63;;;8.25;;
18887;SDS011;9576;47.792;9.628;2022-12-07T04:52:29;21.50;;;8.52;;
18887;SDS011;9576;47.792;9.628;2022-12-07T04:55:31;25.50;;;9.43;;
18887;SDS011;9576;47.792;9.628;2022-12-07T04:58:33;21.88;;;10.80;;
18887;SDS011;9576;47.792;9.628;2022-12-07T05:01:35;23.08;;;8.57;;
18887;SDS011;9576;47.792;9.628;2022-12-07T05:04:38;18.02;;;9.23;;
18887;SDS011;9576;47.792;9.628;2022-12-07T05:07:40;21.02;;;10.13;;
18887;SDS011;9576;47.792;9.628;2022-12-07T05:10:42;22.20;;;9.40;;
18887;SDS011;9576;47.792;9.628;2022-12-07T05:13:44;26.88;;;10.18;;
18887;SDS011;9576;47.792;9.628;2022-12-07T05:16:46;20.15;;;10.20;;
18887;SDS011;9576;47.792;9.628;2022-12-07T05:19:51;31.88;;;9.70;;
18887;SDS011;9576;47.792;9.628;2022-12-07T05:22:52;22.08;;;9.77;;
18887;SDS011;9576;47.792;9.628;2022-12-07T05:25:54;22.35;;;10.93;;
18887;SDS011;9576;47.792;9.628;2022-12-07T05:28:56;22.92;;;8.90;;
18887;SDS011;9576;47.792;9.628;2022-12-07T05:31:58;18.83;;;9.98;;
18887;SDS011;9576;47.792;9.628;2022-12-07T05:35:02;21.30;;;9.50;;
18887;SDS011;9576;47.792;9.628;2022-12-07T05:38:04;23.70;;;10.15;;
18887;SDS011;9576;47.792;9.628;2022-12-07T05:41:06;25.10;;;9.35;;
18887;SDS011;9576;47.792;9.628;2022-12-07T05:44:30;21.97;;;10.40;;
18887;SDS011;9576;47.792;9.628;2022-12-07T05:47:32;24.83;;;9.43;;
18887;SDS011;9576;47.792;9.628;2022-12-07T05:50:35;21.98;;;10.52;;
18887;SDS011;9576;47.792;9.628;2022-12-07T05:53:37;20.75;;;9.00;;
18887;SDS011;9576;47.792;9.628;2022-12-07T05:56:39;19.00;;;9.43;;
18887;SDS011;9576;47.792;9.628;2022-12-07T05:59:41;19.90;;;8.75;;
18887;SDS011;9576;47.792;9.628;2022-12-07T06:02:43;18.55;;;9.10;;
18887;SDS011;9576;47.792;9.628;2022-12-07T06:05:46;23.65;;;9.40;;
18887;SDS011;9576;47.792;9.628;2022-12-07T06:08:48;16.25;;;9.35;;
18887;SDS011;9576;47.792;9.628;2022-12-07T06:11:50;16.50;;;8.88;;
18887;SDS011;9576;47.792;9.628;2022-12-07T06:15:09;18.52;;;9.80;;
18887;SDS011;9576;47.792;9.628;2022-12-07T06:18:13;17.60;;;8.68;;
18887;SDS011;9576;47.792;9.628;2022-12-07T06:21:16;17.38;;;8.70;;
18887;SDS011;9576;47.792;9.628;2022-12-07T06:24:18;18.45;;;9.38;;
18887;SDS011;9576;47.792;9.628;2022-12-07T06:27:20;20.98;;;9.90;;
18887;SDS011;9576;47.792;9.628;2022-12-07T06:30:22;16.23;;;8.38;;
18887;SDS011;9576;47.792;9.628;2022-12-07T06:33:24;19.42;;;8.95;;
18887;SDS011;9576;47.792;9.628;2022-12-07T06:36:28;16.92;;;8.73;;
18887;SDS011;9576;47.792;9.628;2022-12-07T06:39:30;39.60;;;10.57;;
18887;SDS011;9576;47.792;9.628;2022-12-07T06:42:32;19.38;;;8.70;;
18887;SDS011;9576;47.792;9.628;2022-12-07T06:45:35;18.33;;;8.63;;
18887;SDS011;9576;47.792;9.628;2022-12-07T06:48:37;18.38;;;8.20;;
18887;SDS011;9576;47.792;9.628;2022-12-07T06:51:40;23.60;;;10.00;;
18887;SDS011;9576;47.792;9.628;2022-12-07T06:54:43;16.08;;;8.00;;
18887;SDS011;9576;47.792;9.628;2022-12-07T06:57:45;18.55;;;9.20;;
18887;SDS011;9576;47.792;9.628;2022-12-07T07:00:47;16.58;;;7.80;;
18887;SDS011;9576;47.792;9.628;2022-12-07T07:03:50;18.48;;;9.05;;
18887;SDS011;9576;47.792;9.628;2022-12-07T07:06:53;18.85;;;9.07;;
18887;SDS011;9576;47.792;9.628;2022-12-07T07:09:56;23.55;;;11.60;;
18887;SDS011;9576;47.792;9.628;2022-12-07T07:12:58;20.17;;;10.45;;
18887;SDS011;9576;47.792;9.628;2022-12-07T07:16:00;26.60;;;10.55;;
18887;SDS011;9576;47.792;9.628;2022-12-07T07:19:02;16.40;;;8.55;;
18887;SDS011;9576;47.792;9.628;2022-12-07T07:22:06;20.17;;;8.70;;
18887;SDS011;9576;47.792;9.628;2022-12-07T07:25:08;20.90;;;9.55;;
18887;SDS011;9576;47.792;9.628;2022-12-07T07:28:10;24.88;;;12.20;;
18887;SDS011;9576;47.792;9.628;2022-12-07T07:31:12;20.35;;;10.38;;
18887;SDS011;9576;47.792;9.628;2022-12-07T07:34:14;28.70;;;10.65;;
18887;SDS011;9576;47.792;9.628;2022-12-07T07:37:18;22.25;;;10.25;;
18887;SDS011;9576;47.792;9.628;2022-12-07T07:40:20;22.38;;;10.35;;
18887;SDS011;9576;47.792;9.628;2022-12-07T07:43:22;19.45;;;10.18;;
18887;SDS011;9576;47.792;9.628;2022-12-07T07:46:25;20.25;;;8.93;;
18887;SDS011;9576;47.792;9.628;2022-12-07T07:49:27;20.38;;;10.27;;
18887;SDS011;9576;47.792;9.628;2022-12-07T07:52:30;18.10;;;9.35;;
18887;SDS011;9576;47.792;9.628;2022-12-07T07:55:32;17.30;;;9.45;;
18887;SDS011;9576;47.792;9.628;2022-12-07T07:58:34;20.27;;;8.73;;
18887;SDS011;9576;47.792;9.628;2022-12-07T08:01:39;23.17;;;11.50;;
18887;SDS011;9576;47.792;9.628;2022-12-07T08:04:41;23.90;;;11.25;;
18887;SDS011;9576;47.792;9.628;2022-12-07T08:07:45;19.70;;;9.93;;
18887;SDS011;9576;47.792;9.628;2022-12-07T08:10:47;28.58;;;9.48;;
18887;SDS011;9576;47.792;9.628;2022-12-07T08:13:50;17.10;;;9.13;;
18887;SDS011;9576;47.792;9.628;2022-12-07T08:16:52;25.83;;;9.73;;
18887;SDS011;9576;47.792;9.628;2022-12-07T08:19:54;18.05;;;8.57;;
18887;SDS011;9576;47.792;9.628;2022-12-07T08:22:58;21.05;;;9.77;;
18887;SDS011;9576;47.792;9.628;2022-12-07T08:26:00;22.67;;;10.52;;
18887;SDS011;9576;47.792;9.628;2022-12-07T08:29:02;23.60;;;9.82;;
18887;SDS011;9576;47.792;9.628;2022-12-07T08:32:09;19.27;;;9.35;;
18887;SDS011;9576;47.792;9.628;2022-12-07T08:35:26;28.60;;;9.77;;
18887;SDS011;9576;47.792;9.628;2022-12-07T08:38:30;19.20;;;9.98;;
18887;SDS011;9576;47.792;9.628;2022-12-07T08:41:32;34.27;;;11.50;;
18887;SDS011;9576;47.792;9.628;2022-12-07T08:44:35;23.25;;;11.23;;
18887;SDS011;9576;47.792;9.628;2022-12-07T08:47:38;31.70;;;13.05;;
18887;SDS011;9576;47.792;9.628;2022-12-07T08:50:43;27.50;;;11.70;;
18887;SDS011;9576;47.792;9.628;2022-12-07T08:53:47;45.80;;;12.07;;
18887;SDS011;9576;47.792;9.628;2022-12-07T08:56:50;24.73;;;8.93;;
18887;SDS011;9576;47.792;9.628;2022-12-07T08:59:53;25.60;;;10.17;;
18887;SDS011;9576;47.792;9.628;2022-12-07T09:02:55;24.48;;;10.82;;
18887;SDS011;9576;47.792;9.628;2022-12-07T09:05:57;21.15;;;9.82;;
18887;SDS011;9576;47.792;9.628;2022-12-07T09:09:02;20.52;;;11.48;;
18887;SDS011;9576;47.792;9.628;2022-12-07T09:12:05;24.27;;;10.95;;
18887;SDS011;9576;47.792;9.628;2022-12-07T09:15:07;19.08;;;10.48;;
18887;SDS011;9576;47.792;9.628;2022-12-07T09:18:10;21.00;;;9.82;;
18887;SDS011;9576;47.792;9.628;2022-12-07T09:21:12;36.80;;;16.25;;
18887;SDS011;9576;47.792;9.628;2022-12-07T09:24:15;25.17;;;12.65;;
18887;SDS011;9576;47.792;9.628;2022-12-07T09:27:17;33.38;;;11.95;;
18887;SDS011;9576;47.792;9.628;2022-12-07T09:30:19;24.48;;;11.52;;
18887;SDS011;9576;47.792;9.628;2022-12-07T09:33:22;22.15;;;10.85;;
18887;SDS011;9576;47.792;9.628;2022-12-07T09:36:24;25.23;;;11.25;;
18887;SDS011;9576;47.792;9.628;2022-12-07T09:39:28;24.75;;;10.85;;
18887;SDS011;9576;47.792;9.628;2022-12-07T09:42:32;21.65;;;10.70;;
18887;SDS011;9576;47.792;9.628;2022-12-07T09:45:39;22.83;;;11.18;;
18887;SDS011;9576;47.792;9.628;2022-12-07T09:48:42;21.08;;;10.65;;
18887;SDS011;9576;47.792;9.628;2022-12-07T09:51:45;26.25;;;10.77;;
18887;SDS011;9576;47.792;9.628;2022-12-07T09:54:49;22.25;;;10.50;;
18887;SDS011;9576;47.792;9.628;2022-12-07T09:57:52;24.48;;;12.05;;
18887;SDS011;9576;47.792;9.628;2022-12-07T10:00:55;28.50;;;12.50;;
18887;SDS011;9576;47.792;9.628;2022-12-07T10:04:01;25.25;;;11.73;;
18887;SDS011;9576;47.792;9.628;2022-12-07T10:07:10;19.63;;;10.35;;
18887;SDS011;9576;47.792;9.628;2022-12-07T10:10:15;27.20;;;10.48;;
18887;SDS011;9576;47.792;9.628;2022-12-07T10:13:21;19.55;;;10.43;;
18887;SDS011;9576;47.792;9.628;2022-12-07T10:16:36;19.40;;;10.77;;
18887;SDS011;9576;47.792;9.628;2022-12-07T10:19:40;18.73;;;9.68;;
18887;SDS011;9576;47.792;9.628;2022-12-07T10:22:53;21.50;;;10.20;;
18887;SDS011;9576;47.792;9.628;2022-12-07T10:26:00;21.67;;;10.25;;
18887;SDS011;9576;47.792;9.628;2022-12-07T10:29:21;16.27;;;8.57;;
18887;SDS011;9576;47.792;9.628;2022-12-07T10:32:27;34.65;;;9.55;;
18887;SDS011;9576;47.792;9.628;2022-12-07T10:35:34;21.65;;;10.13;;
18887;SDS011;9576;47.792;9.628;2022-12-07T10:38:45;21.08;;;10.88;;
18887;SDS011;9576;47.792;9.628;2022-12-07T10:41:54;17.92;;;8.70;;
18887;SDS011;9576;47.792;9.628;2022-12-07T10:45:07;29.23;;;9.57;;
18887;SDS011;9576;47.792;9.628;2022-12-07T10:48:12;24.00;;;10.20;;
18887;SDS011;9576;47.792;9.628;2022-12-07T10:51:26;21.42;;;10.38;;
18887;SDS011;9576;47.792;9.628;2022-12-07T10:54:38;29.00;;;9.48;;
18887;SDS011;9576;47.792;9.628;2022-12-07T10:57:53;22.52;;;10.75;;
18887;SDS011;9576;47.792;9.628;2022-12-07T11:01:08;22.27;;;10.55;;
18887;SDS011;9576;47.792;9.628;2022-12-07T11:04:21;21.50;;;9.77;;
18887;SDS011;9576;47.792;9.628;2022-12-07T11:07:37;18.02;;;8.73;;
18887;SDS011;9576;47.792;9.628;2022-12-07T11:10:47;22.85;;;10.23;;
18887;SDS011;9576;47.792;9.628;2022-12-07T11:13:59;18.90;;;8.93;;
18887;SDS011;9576;47.792;9.628;2022-12-07T11:17:07;17.88;;;9.77;;
18887;SDS011;9576;47.792;9.628;2022-12-07T11:20:20;24.30;;;10.65;;
18887;SDS011;9576;47.792;9.628;2022-12-07T11:23:40;23.48;;;10.43;;
18887;SDS011;9576;47.792;9.628;2022-12-07T11:26:51;26.45;;;10.63;;
18887;SDS011;9576;47.792;9.628;2022-12-07T11:30:15;22.48;;;9.82;;
18887;SDS011;9576;47.792;9.628;2022-12-07T11:33:22;20.02;;;10.30;;
18887;SDS011;9576;47.792;9.628;2022-12-07T11:36:33;23.27;;;10.15;;
18887;SDS011;9576;47.792;9.628;2022-12-07T11:39:41;20.80;;;10.23;;
18887;SDS011;9576;47.792;9.628;2022-12-07T11:42:49;24.33;;;10.70;;
18887;SDS011;9576;47.792;9.628;2022-12-07T11:45:56;23.00;;;11.65;;
18887;SDS011;9576;47.792;9.628;2022-12-07T11:49:04;24.67;;;11.32;;
18887;SDS011;9576;47.792;9.628;2022-12-07T11:52:18;23.65;;;11.25;;
18887;SDS011;9576;47.792;9.628;2022-12-07T11:55:26;21.45;;;9.80;;
18887;SDS011;9576;47.792;9.628;2022-12-07T11:58:42;25.80;;;11.52;;
18887;SDS011;9576;47.792;9.628;2022-12-07T12:01:52;22.55;;;9.88;;
18887;SDS011;9576;47.792;9.628;2022-12-07T12:04:58;26.38;;;11.75;;
18887;SDS011;9576;47.792;9.628;2022-12-07T12:08:11;26.35;;;11.38;;
18887;SDS011;9576;47.792;9.628;2022-12-07T12:11:21;24.67;;;10.80;;
18887;SDS011;9576;47.792;9.628;2022-12-07T12:14:38;21.23;;;9.93;;
18887;SDS011;9576;47.792;9.628;2022-12-07T12:17:52;16.40;;;9.65;;
18887;SDS011;9576;47.792;9.628;2022-12-07T12:21:04;18.33;;;9.57;;
18887;SDS011;9576;47.792;9.628;2022-12-07T12:24:10;20.50;;;10.82;;
18887;SDS011;9576;47.792;9.628;2022-12-07T12:27:18;16.63;;;9.43;;
18887;SDS011;9576;47.792;9.628;2022-12-07T12:30:30;22.52;;;10.73;;
18887;SDS011;9576;47.792;9.628;2022-12-07T12:33:36;23.15;;;9.55;;
18887;SDS011;9576;47.792;9.628;2022-12-07T12:36:43;23.60;;;10.00;;
18887;SDS011;9576;47.792;9.628;2022-12-07T12:46:52;18.92;;;10.32;;
18887;SDS011;9576;47.792;9.628;2022-12-07T12:50:12;30.33;;;14.45;;
18887;SDS011;9576;47.792;9.628;2022-12-07T12:53:21;23.27;;;10.90;;
18887;SDS011;9576;47.792;9.628;2022-12-07T12:56:29;22.02;;;10.32;;
18887;SDS011;9576;47.792;9.628;2022-12-07T12:59:39;23.95;;;10.45;;
18887;SDS011;9576;47.792;9.628;2022-12-07T13:02:47;22.42;;;9.85;;
18887;SDS011;9576;47.792;9.628;2022-12-07T13:09:21;24.00;;;10.43;;
18887;SDS011;9576;47.792;9.628;2022-12-07T13:12:25;19.25;;;9.98;;
18887;SDS011;9576;47.792;9.628;2022-12-07T13:15:32;22.67;;;10.63;;
18887;SDS011;9576;47.792;9.628;2022-12-07T13:18:35;22.38;;;10.35;;
18887;SDS011;9576;47.792;9.628;2022-12-07T13:21:43;16.55;;;9.02;;
18887;SDS011;9576;47.792;9.628;2022-12-07T13:24:46;25.23;;;11.35;;
18887;SDS011;9576;47.792;9.628;2022-12-07T13:27:50;25.27;;;11.73;;
18887;SDS011;9576;47.792;9.628;2022-12-07T13:31:02;43.85;;;14.60;;
18887;SDS011;9576;47.792;9.628;2022-12-07T13:34:28;22.65;;;11.68;;
18887;SDS011;9576;47.792;9.628;2022-12-07T13:37:34;27.42;;;12.85;;
18887;SDS011;9576;47.792;9.628;2022-12-07T13:40:36;26.65;;;10.55;;
18887;SDS011;9576;47.792;9.628;2022-12-07T13:43:45;26.38;;;12.40;;
18887;SDS011;9576;47.792;9.628;2022-12-07T13:46:52;22.17;;;11.15;;
18887;SDS011;9576;47.792;9.628;2022-12-07T13:49:58;28.00;;;13.20;;
18887;SDS011;9576;47.792;9.628;2022-12-07T13:53:07;28.65;;;12.27;;
18887;SDS011;9576;47.792;9.628;2022-12-07T13:56:14;22.20;;;11.10;;
18887;SDS011;9576;47.792;9.628;2022-12-07T13:59:17;24.25;;;12.32;;
18887;SDS011;9576;47.792;9.628;2022-12-07T14:02:21;23.73;;;10.95;;
18887;SDS011;9576;47.792;9.628;2022-12-07T14:05:27;25.90;;;12.45;;
18887;SDS011;9576;47.792;9.628;2022-12-07T14:08:31;26.47;;;11.60;;
18887;SDS011;9576;47.792;9.628;2022-12-07T14:11:33;30.80;;;12.68;;
18887;SDS011;9576;47.792;9.628;2022-12-07T14:14:36;24.80;;;12.27;;
18887;SDS011;9576;47.792;9.628;2022-12-07T14:17:38;29.60;;;11.85;;
18887;SDS011;9576;47.792;9.628;2022-12-07T14:20:51;25.17;;;11.95;;
18887;SDS011;9576;47.792;9.628;2022-12-07T14:24:09;27.73;;;11.27;;
18887;SDS011;9576;47.792;9.628;2022-12-07T14:27:19;27.35;;;11.63;;
18887;SDS011;9576;47.792;9.628;2022-12-07T14:30:23;21.17;;;10.70;;
18887;SDS011;9576;47.792;9.628;2022-12-07T14:33:27;21.25;;;11.13;;
18887;SDS011;9576;47.792;9.628;2022-12-07T14:36:30;25.15;;;12.20;;
18887;SDS011;9576;47.792;9.628;2022-12-07T14:39:33;33.15;;;13.07;;
18887;SDS011;9576;47.792;9.628;2022-12-07T14:42:35;28.92;;;12.93;;
18887;SDS011;9576;47.792;9.628;2022-12-07T14:45:38;33.15;;;13.38;;
18887;SDS011;9576;47.792;9.628;2022-12-07T14:48:40;27.02;;;12.52;;
18887;SDS011;9576;47.792;9.628;2022-12-07T14:51:42;23.38;;;11.88;;
18887;SDS011;9576;47.792;9.628;2022-12-07T14:54:47;22.92;;;11.10;;
18887;SDS011;9576;47.792;9.628;2022-12-07T14:57:49;29.20;;;10.98;;
18887;SDS011;9576;47.792;9.628;2022-12-07T15:00:51;21.17;;;9.98;;
18887;SDS011;9576;47.792;9.628;2022-12-07T15:03:53;21.70;;;9.95;;
18887;SDS011;9576;47.792;9.628;2022-12-07T15:06:55;19.63;;;9.05;;
18887;SDS011;9576;47.792;9.628;2022-12-07T15:10:00;19.27;;;9.98;;
18887;SDS011;9576;47.792;9.628;2022-12-07T15:13:02;31.40;;;11.70;;
18887;SDS011;9576;47.792;9.628;2022-12-07T15:16:19;30.92;;;12.18;;
18887;SDS011;9576;47.792;9.628;2022-12-07T15:19:22;31.08;;;12.13;;
18887;SDS011;9576;47.792;9.628;2022-12-07T15:22:25;30.52;;;13.27;;
18887;SDS011;9576;47.792;9.628;2022-12-07T15:25:31;25.13;;;12.10;;
18887;SDS011;9576;47.792;9.628;2022-12-07T15:28:33;22.88;;;12.43;;
18887;SDS011;9576;47.792;9.628;2022-12-07T15:31:35;31.42;;;13.65;;
18887;SDS011;9576;47.792;9.628;2022-12-07T15:34:37;26.85;;;12.57;;
18887;SDS011;9576;47.792;9.628;2022-12-07T15:37:39;30.40;;;11.15;;
18887;SDS011;9576;47.792;9.628;2022-12-07T15:40:42;27.85;;;12.90;;
18887;SDS011;9576;47.792;9.628;2022-12-07T15:43:48;26.02;;;12.63;;
18887;SDS011;9576;47.792;9.628;2022-12-07T15:47:07;24.90;;;10.95;;
18887;SDS011;9576;47.792;9.628;2022-12-07T15:50:10;32.33;;;12.13;;
18887;SDS011;9576;47.792;9.628;2022-12-07T15:53:14;21.00;;;10.82;;
18887;SDS011;9576;47.792;9.628;2022-12-07T15:56:17;27.50;;;12.55;;
18887;SDS011;9576;47.792;9.628;2022-12-07T15:59:19;34.50;;;13.20;;
18887;SDS011;9576;47.792;9.628;2022-12-07T16:02:22;37.88;;;14.82;;
18887;SDS011;9576;47.792;9.628;2022-12-07T16:05:24;53.42;;;14.27;;
18887;SDS011;9576;47.792;9.628;2022-12-07T16:08:26;38.60;;;14.85;;
18887;SDS011;9576;47.792;9.628;2022-12-07T16:11:29;92.80;;;32.25;;
18887;SDS011;9576;47.792;9.628;2022-12-07T16:14:31;119.23;;;45.63;;
18887;SDS011;9576;47.792;9.628;2022-12-07T16:17:33;33.35;;;14.75;;
18887;SDS011;9576;47.792;9.628;2022-12-07T16:20:35;27.92;;;11.52;;
18887;SDS011;9576;47.792;9.628;2022-12-07T16:23:37;23.75;;;11.63;;
18887;SDS011;9576;47.792;9.628;2022-12-07T16:26:40;25.85;;;12.10;;
18887;SDS011;9576;47.792;9.628;2022-12-07T16:29:42;33.92;;;13.95;;
18887;SDS011;9576;47.792;9.628;2022-12-07T16:32:45;76.05;;;29.02;;
18887;SDS011;9576;47.792;9.628;2022-12-07T16:35:47;64.20;;;24.98;;
18887;SDS011;9576;47.792;9.628;2022-12-07T16:38:49;38.47;;;15.00;;
18887;SDS011;9576;47.792;9.628;2022-12-07T16:41:52;34.45;;;15.05;;
18887;SDS011;9576;47.792;9.628;2022-12-07T16:44:54;28.75;;;12.48;;
18887;SDS011;9576;47.792;9.628;2022-12-07T16:47:56;42.38;;;17.85;;
18887;SDS011;9576;47.792;9.628;2022-12-07T16:50:58;43.55;;;18.67;;
18887;SDS011;9576;47.792;9.628;2022-12-07T16:54:04;37.03;;;16.60;;
18887;SDS011;9576;47.792;9.628;2022-12-07T16:57:08;30.42;;;15.65;;
18887;SDS011;9576;47.792;9.628;2022-12-07T17:00:10;34.72;;;15.93;;
18887;SDS011;9576;47.792;9.628;2022-12-07T17:03:12;34.38;;;14.55;;
18887;SDS011;9576;47.792;9.628;2022-12-07T17:06:16;31.05;;;14.82;;
18887;SDS011;9576;47.792;9.628;2022-12-07T17:09:19;50.70;;;19.77;;
18887;SDS011;9576;47.792;9.628;2022-12-07T17:12:22;37.42;;;15.30;;
18887;SDS011;9576;47.792;9.628;2022-12-07T17:18:28;45.88;;;16.95;;
18887;SDS011;9576;47.792;9.628;2022-12-07T17:21:31;89.68;;;28.67;;
18887;SDS011;9576;47.792;9.628;2022-12-07T17:24:33;55.10;;;21.63;;
18887;SDS011;9576;47.792;9.628;2022-12-07T17:27:36;49.60;;;20.40;;
18887;SDS011;9576;47.792;9.628;2022-12-07T17:30:38;44.03;;;19.13;;
18887;SDS011;9576;47.792;9.628;2022-12-07T17:33:40;35.15;;;15.13;;
18887;SDS011;9576;47.792;9.628;2022-12-07T17:36:42;63.58;;;20.58;;
18887;SDS011;9576;47.792;9.628;2022-12-07T17:39:45;52.35;;;18.52;;
18887;SDS011;9576;47.792;9.628;2022-12-07T17:42:48;45.90;;;15.27;;
18887;SDS011;9576;47.792;9.628;2022-12-07T17:45:50;42.50;;;19.00;;
18887;SDS011;9576;47.792;9.628;2022-12-07T17:48:53;34.42;;;16.13;;
18887;SDS011;9576;47.792;9.628;2022-12-07T17:51:54;39.55;;;16.38;;
18887;SDS011;9576;47.792;9.628;2022-12-07T17:55:14;37.00;;;16.60;;
18887;SDS011;9576;47.792;9.628;2022-12-07T17:58:17;48.47;;;16.40;;
18887;SDS011;9576;47.792;9.628;2022-12-07T18:01:20;36.05;;;17.10;;
18887;SDS011;9576;47.792;9.628;2022-12-07T18:04:21;31.80;;;13.77;;
18887;SDS011;9576;47.792;9.628;2022-12-07T18:07:23;26.95;;;11.75;;
18887;SDS011;9576;47.792;9.628;2022-12-07T18:10:25;32.58;;;13.35;;
18887;SDS011;9576;47.792;9.628;2022-12-07T18:13:29;40.92;;;15.35;;
18887;SDS011;9576;47.792;9.628;2022-12-07T18:16:37;34.40;;;14.00;;
18887;SDS011;9576;47.792;9.628;2022-12-07T18:19:38;42.78;;;19.48;;
18887;SDS011;9576;47.792;9.628;2022-12-07T18:22:42;50.33;;;19.27;;
18887;SDS011;9576;47.792;9.628;2022-12-07T18:25:45;31.65;;;13.35;;
18887;SDS011;9576;47.792;9.628;2022-12-07T18:28:49;30.33;;;13.70;;
18887;SDS011;9576;47.792;9.628;2022-12-07T18:31:51;30.92;;;12.93;;
18887;SDS011;9576;47.792;9.628;2022-12-07T18:34:53;34.97;;;15.52;;
18887;SDS011;9576;47.792;9.628;2022-12-07T18:37:55;25.15;;;11.30;;
18887;SDS011;9576;47.792;9.628;2022-12-07T18:40:57;34.70;;;14.02;;
18887;SDS011;9576;47.792;9.628;2022-12-07T18:44:01;40.03;;;18.65;;
18887;SDS011;9576;47.792;9.628;2022-12-07T18:47:04;48.65;;;17.35;;
18887;SDS011;9576;47.792;9.628;2022-12-07T18:50:06;40.85;;;17.88;;